createdAt,value
2022-08-26T00:01:36.540Z,99146.78
2022-08-26T00:07:38.875Z,99149.53
2022-08-26T00:13:41.345Z,99140.31
2022-08-26T00:19:50.003Z,99139.72
2022-08-26T00:25:54.700Z,99137.16
2022-08-26T00:31:58.794Z,99132.97
2022-08-26T00:38:02.433Z,99130.06
2022-08-26T00:44:05.649Z,99126.81
2022-08-26T00:50:14.116Z,99130.13
2022-08-26T00:56:29.349Z,99129.06
2022-08-26T01:02:31.475Z,99126.00
2022-08-26T01:08:34.106Z,99126.09
2022-08-26T01:14:36.987Z,99127.53
2022-08-26T01:21:06.313Z,99124.31
2022-08-26T01:27:15.600Z,99125.97
2022-08-26T01:33:23.608Z,99110.19
2022-08-26T01:39:25.690Z,99118.69
2022-08-26T01:45:32.189Z,99126.19
2022-08-26T01:51:38.201Z,99124.31
2022-08-26T01:57:41.042Z,99124.31
2022-08-26T02:04:10.792Z,99124.31
2022-08-26T02:10:13.093Z,99117.78
2022-08-26T02:16:20.949Z,99117.28
2022-08-26T02:22:24.932Z,99123.59
2022-08-26T02:28:33.294Z,99111.88
2022-08-26T02:34:35.318Z,99114.59
2022-08-26T02:40:41.072Z,99117.91
2022-08-26T02:46:47.097Z,99117.34
2022-08-26T02:52:49.458Z,99113.03
2022-08-26T02:58:52.297Z,99116.31
2022-08-26T03:04:57.911Z,99102.94
2022-08-26T03:11:04.276Z,99107.88
2022-08-26T03:17:07.012Z,99096.69
2022-08-26T03:23:12.479Z,99105.41
2022-08-26T03:29:33.143Z,99095.34
2022-08-26T03:35:35.729Z,99089.31
2022-08-26T03:41:38.040Z,99084.94
2022-08-26T03:47:40.747Z,99080.03
2022-08-26T03:53:43.806Z,99085.75
2022-08-26T03:59:45.755Z,99080.56
2022-08-26T04:05:52.203Z,99085.75
2022-08-26T04:11:57.609Z,99085.50
2022-08-26T04:17:59.557Z,99084.13
2022-08-26T04:24:03.393Z,99082.22
2022-08-26T04:30:06.955Z,99075.69
2022-08-26T04:36:11.803Z,99080.31
2022-08-26T04:42:13.906Z,99068.03
2022-08-26T04:48:16.864Z,99078.66
2022-08-26T04:54:19.397Z,99081.91
2022-08-26T05:00:22.161Z,99084.13
2022-08-26T05:06:24.324Z,99086.56
2022-08-26T05:12:27.854Z,99092.78
2022-08-26T05:18:30.294Z,99097.13
2022-08-26T05:24:32.389Z,99098.66
2022-08-26T05:30:35.488Z,99100.41
2022-08-26T05:36:37.929Z,99096.56
2022-08-26T05:42:40.284Z,99108.16
2022-08-26T05:48:44.448Z,99091.66
2022-08-26T05:54:46.566Z,99094.06
2022-08-26T06:01:01.389Z,99108.00
2022-08-26T06:07:05.432Z,99093.19
2022-08-26T06:13:11.872Z,99099.38
2022-08-26T06:19:15.622Z,99100.41
2022-08-26T06:25:36.080Z,99104.13
2022-08-26T06:31:40.061Z,99099.16
2022-08-26T06:37:42.842Z,99112.56
2022-08-26T06:43:44.829Z,99109.16
2022-08-26T06:49:46.960Z,99110.47
2022-08-26T06:55:51.865Z,99110.81
2022-08-26T07:01:54.723Z,99126.03
2022-08-26T07:07:57.971Z,99123.75
2022-08-26T07:14:00.934Z,99116.97
2022-08-26T07:20:07.565Z,99124.03
2022-08-26T07:26:16.159Z,99120.06
2022-08-26T07:32:22.830Z,99126.66
2022-08-26T07:38:24.950Z,99131.38
2022-08-26T07:44:27.790Z,99133.38
2022-08-26T07:50:48.796Z,99129.91
2022-08-26T07:56:51.896Z,99136.41
2022-08-26T08:02:54.243Z,99130.88
2022-08-26T08:09:00.833Z,99130.25
2022-08-26T08:15:02.856Z,99129.84
2022-08-26T08:21:21.441Z,99142.28
2022-08-26T08:27:25.736Z,99137.63
2022-08-26T08:33:30.162Z,99130.47
2022-08-26T08:39:33.091Z,99128.53
2022-08-26T08:45:56.521Z,99133.19
2022-08-26T08:52:35.284Z,99121.97
2022-08-26T08:58:59.100Z,99111.00
2022-08-26T09:05:34.052Z,99106.00
2022-08-26T09:11:36.645Z,99097.91
2022-08-26T09:18:27.642Z,99100.75
2022-08-26T09:24:38.356Z,99093.69
2022-08-26T09:30:47.926Z,99091.56
2022-08-26T09:36:55.731Z,99099.72
2022-08-26T09:43:22.604Z,99095.72
2022-08-26T09:49:36.417Z,99090.94
2022-08-26T09:55:42.958Z,99079.97
2022-08-26T10:01:45.252Z,99066.41
2022-08-26T10:07:51.175Z,99061.34
2022-08-26T10:14:03.319Z,99051.59
2022-08-26T10:20:31.279Z,99036.53
2022-08-26T10:26:51.760Z,99026.47
2022-08-26T10:33:18.475Z,99018.50
2022-08-26T10:39:31.843Z,99011.66
2022-08-26T10:45:50.742Z,99004.06
2022-08-26T10:52:29.506Z,99006.53
2022-08-26T10:59:15.235Z,99000.66
2022-08-26T11:05:23.530Z,99001.09
2022-08-26T11:11:42.045Z,99001.81
2022-08-26T11:18:05.160Z,98976.25
2022-08-26T11:24:07.153Z,98980.50
2022-08-26T11:30:20.793Z,98965.97
2022-08-26T11:36:41.097Z,98951.75
2022-08-26T11:42:50.743Z,98950.69
2022-08-26T11:49:02.767Z,98934.50
2022-08-26T11:55:14.339Z,98943.53
2022-08-26T12:01:32.490Z,98932.78
2022-08-26T12:07:34.696Z,98928.84
2022-08-26T12:13:39.056Z,98905.03
2022-08-26T12:19:41.162Z,98911.94
2022-08-26T12:25:43.192Z,98897.03
2022-08-26T12:31:45.630Z,98906.00
2022-08-26T12:37:54.065Z,98895.09
2022-08-26T12:43:56.727Z,98877.81
2022-08-26T12:50:05.944Z,98883.78
2022-08-26T12:56:28.933Z,98880.88
2022-08-26T13:02:39.989Z,98878.84
2022-08-26T13:09:24.327Z,98884.00
2022-08-26T13:15:26.401Z,98877.81
2022-08-26T13:21:37.384Z,98868.00
2022-08-26T13:27:40.390Z,98875.38
2022-08-26T13:33:44.490Z,98868.25
2022-08-26T13:39:46.795Z,98873.97
2022-08-26T13:45:49.469Z,98871.63
2022-08-26T13:51:51.479Z,98878.22
2022-08-26T13:57:56.625Z,98877.94
2022-08-26T14:03:59.095Z,98867.75
2022-08-26T14:10:01.665Z,98851.31
2022-08-26T14:16:09.142Z,98852.56
2022-08-26T14:22:11.199Z,98869.34
2022-08-26T14:28:13.226Z,98875.38
2022-08-26T14:34:15.699Z,98900.56
2022-08-26T14:40:20.333Z,98895.19
2022-08-26T14:46:22.455Z,98884.25
2022-08-26T14:52:24.924Z,98894.16
2022-08-26T14:58:35.020Z,98892.66
2022-08-26T15:04:38.444Z,98876.84
2022-08-26T15:10:40.444Z,98880.41
2022-08-26T15:16:42.583Z,98878.56
2022-08-26T15:22:44.596Z,98891.28
2022-08-26T15:28:47.366Z,98900.56
2022-08-26T15:34:53.019Z,98896.09
2022-08-26T15:40:55.346Z,98898.59
2022-08-26T15:46:59.083Z,98882.16
2022-08-26T15:53:01.478Z,98872.28
2022-08-26T15:59:07.514Z,98868.94
2022-08-26T16:05:10.411Z,98869.78
2022-08-26T16:11:14.032Z,98877.81
2022-08-26T16:17:16.072Z,98884.97
2022-08-26T16:23:19.011Z,98876.84
2022-08-26T16:29:21.055Z,98877.06
2022-08-26T16:35:23.223Z,98873.47
2022-08-26T16:41:29.279Z,98884.13
2022-08-26T16:47:31.760Z,98894.63
2022-08-26T16:53:33.837Z,98906.72
2022-08-26T16:59:35.991Z,98906.56
2022-08-26T17:05:38.340Z,98901.38
2022-08-26T17:11:40.472Z,98905.28
2022-08-26T17:17:42.604Z,98904.25
2022-08-26T17:23:45.135Z,98904.63
2022-08-26T17:29:47.116Z,98906.34
2022-08-26T17:35:49.090Z,98915.75
2022-08-26T17:41:51.535Z,98919.81
2022-08-26T17:47:56.609Z,98941.38
2022-08-26T17:53:58.664Z,98942.78
2022-08-26T18:00:00.955Z,98961.00
2022-08-26T18:06:07.977Z,98956.00
2022-08-26T18:12:10.795Z,98970.09
2022-08-26T18:18:14.858Z,98992.03
2022-08-26T18:24:17.003Z,99000.41
2022-08-26T18:30:21.608Z,98996.75
2022-08-26T18:36:33.271Z,98974.34
2022-08-26T18:42:35.493Z,98983.50
2022-08-26T18:48:39.622Z,98994.63
2022-08-26T18:54:41.599Z,98979.75
2022-08-26T19:00:43.596Z,98989.28
2022-08-26T19:06:50.964Z,98990.25
2022-08-26T19:12:55.382Z,99002.94
2022-08-26T19:19:01.916Z,99004.34
2022-08-26T19:25:04.392Z,99006.69
2022-08-26T19:31:10.475Z,99009.84
2022-08-26T19:37:12.502Z,99026.50
2022-08-26T19:43:14.488Z,99027.03
2022-08-26T19:49:16.548Z,99026.22
2022-08-26T19:55:21.003Z,99020.28
2022-08-26T20:01:23.335Z,99035.44
2022-08-26T20:07:25.494Z,99023.75
2022-08-26T20:13:28.241Z,99021.56
2022-08-26T20:19:48.981Z,99023.22
2022-08-26T20:25:50.958Z,99032.75
2022-08-26T20:31:54.627Z,99054.91
2022-08-26T20:37:56.678Z,99056.78
2022-08-26T20:43:59.404Z,99064.97
2022-08-26T20:50:02.525Z,99068.88
2022-08-26T20:56:08.282Z,99075.34
2022-08-26T21:02:10.360Z,99074.44
2022-08-26T21:08:13.218Z,99076.63
2022-08-26T21:14:17.010Z,99081.00
2022-08-26T21:20:19.804Z,99077.16
2022-08-26T21:26:22.952Z,99081.75
2022-08-26T21:32:25.002Z,99079.28
2022-08-26T21:38:30.855Z,99076.84
2022-08-26T21:44:32.867Z,99074.34
2022-08-26T21:50:38.230Z,99073.41
2022-08-26T21:56:46.157Z,99077.97
2022-08-26T22:02:50.199Z,99083.50
2022-08-26T22:08:53.848Z,99073.41
2022-08-26T22:14:55.845Z,99065.56
2022-08-26T22:21:03.200Z,99082.84
2022-08-26T22:27:05.358Z,99088.31
2022-08-26T22:33:07.447Z,99094.38
2022-08-26T22:39:10.469Z,99099.66
2022-08-26T22:45:13.070Z,99098.56
2022-08-26T22:51:15.110Z,99091.75
2022-08-26T22:57:17.109Z,99087.13
2022-08-26T23:03:19.282Z,99081.44
2022-08-26T23:09:21.386Z,99072.16
2022-08-26T23:15:24.531Z,99075.41
2022-08-26T23:21:26.534Z,99073.25
2022-08-26T23:27:29.209Z,99063.44
2022-08-26T23:33:51.281Z,99071.06
2022-08-26T23:39:55.205Z,99058.25
2022-08-26T23:45:57.310Z,99055.00
2022-08-26T23:52:17.810Z,99057.44
2022-08-26T23:58:21.947Z,99058.78
